sensor_id;sensor_type;location;lat;lon;timestamp;pressure;altitude;pressure_sealevel;temperature;humidity
6144;BME280;3103;49.492;8.474;2022-11-15T00:01:29;100211.81;;;11.55;79.08
6144;BME280;3103;49.492;8.474;2022-11-15T00:04:14;100215.75;;;11.47;79.66
6144;BME280;3103;49.492;8.474;2022-11-15T00:06:59;100199.03;;;11.45;80.13
6144;BME280;3103;49.492;8.474;2022-11-15T00:09:46;100202.09;;;11.32;80.50
6144;BME280;3103;49.492;8.474;2022-11-15T00:12:32;100210.47;;;11.36;80.54
6144;BME280;3103;49.492;8.474;2022-11-15T00:15:17;100207.16;;;11.50;80.37
6144;BME280;3103;49.492;8.474;2022-11-15T00:18:05;100214.59;;;11.65;79.50
6144;BME280;3103;49.492;8.474;2022-11-15T00:20:50;100210.09;;;11.49;79.49
6144;BME280;3103;49.492;8.474;2022-11-15T00:23:35;100196.16;;;11.52;79.31
6144;BME280;3103;49.492;8.474;2022-11-15T00:26:21;100195.28;;;11.46;79.51
6144;BME280;3103;49.492;8.474;2022-11-15T00:29:06;100197.22;;;11.51;79.18
6144;BME280;3103;49.492;8.474;2022-11-15T00:31:52;100197.72;;;11.48;79.65
6144;BME280;3103;49.492;8.474;2022-11-15T00:34:37;100188.03;;;11.69;78.89
6144;BME280;3103;49.492;8.474;2022-11-15T00:37:23;100186.03;;;11.59;78.94
6144;BME280;3103;49.492;8.474;2022-11-15T00:40:09;100184.00;;;11.71;78.04
6144;BME280;3103;49.492;8.474;2022-11-15T00:42:55;100177.94;;;12.08;75.95
6144;BME280;3103;49.492;8.474;2022-11-15T00:45:40;100185.38;;;11.74;77.54
6144;BME280;3103;49.492;8.474;2022-11-15T00:48:26;100186.13;;;11.91;77.43
6144;BME280;3103;49.492;8.474;2022-11-15T00:51:12;100182.59;;;11.91;76.64
6144;BME280;3103;49.492;8.474;2022-11-15T00:53:58;100180.75;;;11.69;77.49
6144;BME280;3103;49.492;8.474;2022-11-15T00:56:43;100182.44;;;11.53;78.47
6144;BME280;3103;49.492;8.474;2022-11-15T00:59:28;100183.75;;;11.51;79.11
6144;BME280;3103;49.492;8.474;2022-11-15T01:02:13;100168.13;;;11.48;79.13
6144;BME280;3103;49.492;8.474;2022-11-15T01:05:00;100168.28;;;11.63;78.49
6144;BME280;3103;49.492;8.474;2022-11-15T01:07:45;100159.69;;;11.39;79.39
6144;BME280;3103;49.492;8.474;2022-11-15T01:10:31;100163.38;;;11.55;79.15
6144;BME280;3103;49.492;8.474;2022-11-15T01:13:17;100165.44;;;11.26;80.02
6144;BME280;3103;49.492;8.474;2022-11-15T01:16:12;100166.75;;;11.23;80.96
6144;BME280;3103;49.492;8.474;2022-11-15T01:18:59;100166.88;;;11.34;80.48
6144;BME280;3103;49.492;8.474;2022-11-15T01:21:44;100162.75;;;11.48;79.61
6144;BME280;3103;49.492;8.474;2022-11-15T01:24:29;100152.00;;;11.75;77.60
6144;BME280;3103;49.492;8.474;2022-11-15T01:27:14;100160.50;;;11.40;79.53
6144;BME280;3103;49.492;8.474;2022-11-15T01:30:00;100155.88;;;11.57;78.91
6144;BME280;3103;49.492;8.474;2022-11-15T01:32:45;100155.69;;;11.42;79.90
6144;BME280;3103;49.492;8.474;2022-11-15T01:35:31;100143.00;;;11.64;77.72
6144;BME280;3103;49.492;8.474;2022-11-15T01:38:19;100156.31;;;11.76;77.49
6144;BME280;3103;49.492;8.474;2022-11-15T01:41:04;100157.22;;;11.81;76.68
6144;BME280;3103;49.492;8.474;2022-11-15T01:43:52;100157.53;;;11.85;76.40
6144;BME280;3103;49.492;8.474;2022-11-15T01:46:38;100149.03;;;11.49;77.91
6144;BME280;3103;49.492;8.474;2022-11-15T01:49:24;100151.28;;;11.57;77.68
6144;BME280;3103;49.492;8.474;2022-11-15T01:52:15;100147.06;;;11.67;77.25
6144;BME280;3103;49.492;8.474;2022-11-15T01:55:10;100141.72;;;11.94;75.65
6144;BME280;3103;49.492;8.474;2022-11-15T01:57:59;100139.09;;;11.77;76.43
6144;BME280;3103;49.492;8.474;2022-11-15T02:00:48;100134.19;;;11.69;76.75
6144;BME280;3103;49.492;8.474;2022-11-15T02:03:42;100141.06;;;11.81;76.56
6144;BME280;3103;49.492;8.474;2022-11-15T02:06:31;100129.97;;;12.05;74.57
6144;BME280;3103;49.492;8.474;2022-11-15T02:09:19;100130.97;;;11.45;76.69
6144;BME280;3103;49.492;8.474;2022-11-15T02:12:07;100138.50;;;11.43;77.62
6144;BME280;3103;49.492;8.474;2022-11-15T02:14:55;100128.63;;;11.26;78.85
6144;BME280;3103;49.492;8.474;2022-11-15T02:28:06;100106.41;;;11.63;76.74
6144;BME280;3103;49.492;8.474;2022-11-15T02:31:10;100099.91;;;11.32;77.78
6144;BME280;3103;49.492;8.474;2022-11-15T02:34:27;100096.22;;;11.16;79.31
6144;BME280;3103;49.492;8.474;2022-11-15T02:37:36;100091.53;;;11.55;77.15
6144;BME280;3103;49.492;8.474;2022-11-15T02:40:37;100086.19;;;11.34;77.70
6144;BME280;3103;49.492;8.474;2022-11-15T02:43:37;100079.88;;;11.45;77.09
6144;BME280;3103;49.492;8.474;2022-11-15T02:47:00;100073.78;;;11.27;77.82
6144;BME280;3103;49.492;8.474;2022-11-15T02:50:06;100064.97;;;11.37;77.89
6144;BME280;3103;49.492;8.474;2022-11-15T02:52:53;100070.63;;;11.63;76.12
6144;BME280;3103;49.492;8.474;2022-11-15T02:55:45;100073.13;;;11.42;76.83
6144;BME280;3103;49.492;8.474;2022-11-15T02:58:49;100080.13;;;11.21;78.27
6144;BME280;3103;49.492;8.474;2022-11-15T03:05:06;100068.06;;;11.24;78.34
6144;BME280;3103;49.492;8.474;2022-11-15T03:11:09;100065.19;;;11.30;78.35
6144;BME280;3103;49.492;8.474;2022-11-15T03:17:22;100056.72;;;11.44;76.82
6144;BME280;3103;49.492;8.474;2022-11-15T03:20:10;100056.47;;;11.45;76.67
6144;BME280;3103;49.492;8.474;2022-11-15T03:23:03;100057.16;;;11.36;77.57
6144;BME280;3103;49.492;8.474;2022-11-15T03:25:51;100068.22;;;11.39;77.79
6144;BME280;3103;49.492;8.474;2022-11-15T03:28:55;100066.00;;;11.31;77.62
6144;BME280;3103;49.492;8.474;2022-11-15T03:31:49;100060.91;;;11.35;77.72
6144;BME280;3103;49.492;8.474;2022-11-15T03:37:26;100053.88;;;11.28;77.71
6144;BME280;3103;49.492;8.474;2022-11-15T03:40:15;100052.66;;;11.41;76.75
6144;BME280;3103;49.492;8.474;2022-11-15T03:46:10;100048.72;;;11.54;75.59
6144;BME280;3103;49.492;8.474;2022-11-15T03:49:09;100054.56;;;11.73;75.13
6144;BME280;3103;49.492;8.474;2022-11-15T03:51:58;100061.22;;;11.92;74.20
6144;BME280;3103;49.492;8.474;2022-11-15T03:54:52;100064.88;;;11.54;75.69
6144;BME280;3103;49.492;8.474;2022-11-15T03:57:38;100054.44;;;11.57;75.83
6144;BME280;3103;49.492;8.474;2022-11-15T04:00:23;100054.28;;;11.42;75.95
6144;BME280;3103;49.492;8.474;2022-11-15T04:03:09;100058.09;;;11.46;75.91
6144;BME280;3103;49.492;8.474;2022-11-15T04:05:55;100063.97;;;11.97;74.18
6144;BME280;3103;49.492;8.474;2022-11-15T04:08:40;100069.56;;;11.96;73.86
6144;BME280;3103;49.492;8.474;2022-11-15T04:11:25;100061.13;;;11.55;75.88
6144;BME280;3103;49.492;8.474;2022-11-15T04:14:10;100059.75;;;11.52;76.45
6144;BME280;3103;49.492;8.474;2022-11-15T04:16:57;100056.44;;;11.40;77.24
6144;BME280;3103;49.492;8.474;2022-11-15T04:19:42;100057.94;;;11.58;76.88
6144;BME280;3103;49.492;8.474;2022-11-15T04:22:47;100062.34;;;11.69;76.37
6144;BME280;3103;49.492;8.474;2022-11-15T04:25:52;100063.47;;;12.05;74.56
6144;BME280;3103;49.492;8.474;2022-11-15T04:28:39;100057.25;;;11.73;75.45
6144;BME280;3103;49.492;8.474;2022-11-15T04:31:44;100056.88;;;11.86;75.39
6144;BME280;3103;49.492;8.474;2022-11-15T04:34:29;100053.13;;;11.65;75.89
6144;BME280;3103;49.492;8.474;2022-11-15T04:37:15;100059.69;;;12.01;74.38
6144;BME280;3103;49.492;8.474;2022-11-15T04:40:01;100055.31;;;11.95;74.67
6144;BME280;3103;49.492;8.474;2022-11-15T04:42:46;100048.03;;;11.96;74.16
6144;BME280;3103;49.492;8.474;2022-11-15T04:45:32;100049.72;;;12.02;74.00
6144;BME280;3103;49.492;8.474;2022-11-15T04:48:17;100047.81;;;11.97;73.84
6144;BME280;3103;49.492;8.474;2022-11-15T04:51:02;100042.09;;;11.62;76.01
6144;BME280;3103;49.492;8.474;2022-11-15T04:53:50;100036.94;;;11.55;76.84
6144;BME280;3103;49.492;8.474;2022-11-15T04:56:36;100038.41;;;11.73;76.31
6144;BME280;3103;49.492;8.474;2022-11-15T04:59:25;100048.75;;;12.18;73.52
6144;BME280;3103;49.492;8.474;2022-11-15T05:02:11;100030.47;;;11.83;75.17
6144;BME280;3103;49.492;8.474;2022-11-15T05:04:57;100023.03;;;11.68;76.53
6144;BME280;3103;49.492;8.474;2022-11-15T05:07:43;100017.72;;;11.78;75.68
6144;BME280;3103;49.492;8.474;2022-11-15T05:10:28;100022.56;;;12.08;74.36
6144;BME280;3103;49.492;8.474;2022-11-15T05:13:14;100012.50;;;11.67;75.71
6144;BME280;3103;49.492;8.474;2022-11-15T05:16:00;100029.59;;;12.14;73.82
6144;BME280;3103;49.492;8.474;2022-11-15T05:18:45;100027.47;;;12.16;73.34
6144;BME280;3103;49.492;8.474;2022-11-15T05:21:31;100029.59;;;12.14;73.49
6144;BME280;3103;49.492;8.474;2022-11-15T05:24:17;100020.88;;;11.97;74.15
6144;BME280;3103;49.492;8.474;2022-11-15T05:27:04;100017.31;;;11.86;74.63
6144;BME280;3103;49.492;8.474;2022-11-15T05:29:49;100015.28;;;11.72;75.97
6144;BME280;3103;49.492;8.474;2022-11-15T05:32:36;100004.97;;;11.64;76.23
6144;BME280;3103;49.492;8.474;2022-11-15T05:35:31;99997.28;;;11.45;77.17
6144;BME280;3103;49.492;8.474;2022-11-15T05:38:19;100015.63;;;11.80;75.96
6144;BME280;3103;49.492;8.474;2022-11-15T05:41:04;100016.69;;;12.11;74.29
6144;BME280;3103;49.492;8.474;2022-11-15T05:43:51;100018.50;;;12.06;73.60
6144;BME280;3103;49.492;8.474;2022-11-15T05:46:36;100018.75;;;12.04;74.23
6144;BME280;3103;49.492;8.474;2022-11-15T05:49:25;100022.97;;;11.90;74.59
6144;BME280;3103;49.492;8.474;2022-11-15T05:52:13;100017.72;;;11.78;75.49
6144;BME280;3103;49.492;8.474;2022-11-15T05:55:02;100015.94;;;11.57;76.87
6144;BME280;3103;49.492;8.474;2022-11-15T05:57:48;100010.38;;;11.37;77.58
6144;BME280;3103;49.492;8.474;2022-11-15T06:00:33;100008.19;;;11.34;78.05
6144;BME280;3103;49.492;8.474;2022-11-15T06:03:19;100002.91;;;11.44;77.99
6144;BME280;3103;49.492;8.474;2022-11-15T06:06:04;100005.50;;;11.93;75.85
6144;BME280;3103;49.492;8.474;2022-11-15T06:08:50;100014.91;;;11.63;76.85
6144;BME280;3103;49.492;8.474;2022-11-15T06:11:35;100019.78;;;11.66;76.40
6144;BME280;3103;49.492;8.474;2022-11-15T06:14:22;100008.41;;;11.86;75.90
6144;BME280;3103;49.492;8.474;2022-11-15T06:17:07;100022.06;;;11.79;76.78
6144;BME280;3103;49.492;8.474;2022-11-15T06:19:55;100021.34;;;11.30;78.62
6144;BME280;3103;49.492;8.474;2022-11-15T06:22:41;100006.94;;;11.41;78.20
6144;BME280;3103;49.492;8.474;2022-11-15T06:25:28;100023.91;;;11.74;77.54
6144;BME280;3103;49.492;8.474;2022-11-15T06:28:13;100016.25;;;11.34;79.00
6144;BME280;3103;49.492;8.474;2022-11-15T06:31:10;100028.25;;;11.48;79.47
6144;BME280;3103;49.492;8.474;2022-11-15T06:33:57;100018.84;;;11.23;79.58
6144;BME280;3103;49.492;8.474;2022-11-15T06:36:43;100012.31;;;11.14;80.20
6144;BME280;3103;49.492;8.474;2022-11-15T06:39:28;100009.38;;;11.16;80.90
6144;BME280;3103;49.492;8.474;2022-11-15T06:42:13;100018.09;;;11.28;79.93
6144;BME280;3103;49.492;8.474;2022-11-15T06:45:01;100012.63;;;11.18;80.72
6144;BME280;3103;49.492;8.474;2022-11-15T06:47:47;100015.34;;;11.50;79.28
6144;BME280;3103;49.492;8.474;2022-11-15T06:50:32;100014.94;;;11.68;77.96
6144;BME280;3103;49.492;8.474;2022-11-15T06:53:17;100011.66;;;11.56;78.82
6144;BME280;3103;49.492;8.474;2022-11-15T06:56:06;100009.66;;;11.19;79.94
6144;BME280;3103;49.492;8.474;2022-11-15T06:58:51;100002.25;;;11.32;80.22
6144;BME280;3103;49.492;8.474;2022-11-15T07:01:37;100007.09;;;11.29;80.24
6144;BME280;3103;49.492;8.474;2022-11-15T07:04:23;100006.28;;;11.29;80.33
6144;BME280;3103;49.492;8.474;2022-11-15T07:07:09;100007.56;;;11.53;79.37
6144;BME280;3103;49.492;8.474;2022-11-15T07:09:55;99999.19;;;11.50;78.88
6144;BME280;3103;49.492;8.474;2022-11-15T07:12:40;99999.63;;;11.37;79.18
6144;BME280;3103;49.492;8.474;2022-11-15T07:15:25;100006.19;;;11.51;78.95
6144;BME280;3103;49.492;8.474;2022-11-15T07:18:11;100015.94;;;11.57;78.82
6144;BME280;3103;49.492;8.474;2022-11-15T07:21:01;100003.38;;;11.68;78.53
6144;BME280;3103;49.492;8.474;2022-11-15T07:23:46;100006.81;;;11.58;77.92
6144;BME280;3103;49.492;8.474;2022-11-15T07:26:32;100010.78;;;11.50;78.50
6144;BME280;3103;49.492;8.474;2022-11-15T07:29:17;100007.91;;;11.62;78.38
6144;BME280;3103;49.492;8.474;2022-11-15T07:32:03;100008.31;;;11.44;78.73
6144;BME280;3103;49.492;8.474;2022-11-15T07:34:48;100010.97;;;11.71;77.27
6144;BME280;3103;49.492;8.474;2022-11-15T07:37:34;100019.19;;;11.59;77.90
6144;BME280;3103;49.492;8.474;2022-11-15T07:40:20;100025.47;;;11.70;78.15
6144;BME280;3103;49.492;8.474;2022-11-15T07:43:07;100025.78;;;11.73;78.02
6144;BME280;3103;49.492;8.474;2022-11-15T07:45:53;100024.56;;;11.59;78.53
6144;BME280;3103;49.492;8.474;2022-11-15T07:48:43;100025.97;;;11.67;78.04
6144;BME280;3103;49.492;8.474;2022-11-15T07:51:29;100038.03;;;11.59;79.69
6144;BME280;3103;49.492;8.474;2022-11-15T07:54:15;100028.38;;;11.63;79.15
6144;BME280;3103;49.492;8.474;2022-11-15T07:57:01;100026.59;;;11.74;78.72
6144;BME280;3103;49.492;8.474;2022-11-15T07:59:52;100022.97;;;11.90;77.61
6144;BME280;3103;49.492;8.474;2022-11-15T08:02:38;100027.28;;;11.91;78.08
6144;BME280;3103;49.492;8.474;2022-11-15T08:05:23;100026.63;;;12.11;76.81
6144;BME280;3103;49.492;8.474;2022-11-15T08:08:10;100022.16;;;11.89;77.86
6144;BME280;3103;49.492;8.474;2022-11-15T08:10:58;100015.72;;;11.96;78.06
6144;BME280;3103;49.492;8.474;2022-11-15T08:13:43;100020.28;;;11.90;77.86
6144;BME280;3103;49.492;8.474;2022-11-15T08:16:29;100016.88;;;12.05;77.23
6144;BME280;3103;49.492;8.474;2022-11-15T08:19:14;100019.75;;;11.93;77.43
6144;BME280;3103;49.492;8.474;2022-11-15T08:21:59;100027.75;;;12.20;76.46
6144;BME280;3103;49.492;8.474;2022-11-15T08:24:45;100019.09;;;12.13;76.08
6144;BME280;3103;49.492;8.474;2022-11-15T08:27:30;100019.03;;;12.03;76.54
6144;BME280;3103;49.492;8.474;2022-11-15T08:30:16;100015.28;;;12.09;76.55
6144;BME280;3103;49.492;8.474;2022-11-15T08:33:04;100014.56;;;12.18;76.17
6144;BME280;3103;49.492;8.474;2022-11-15T08:35:50;100006.72;;;12.17;76.53
6144;BME280;3103;49.492;8.474;2022-11-15T08:38:35;100000.00;;;12.19;77.05
6144;BME280;3103;49.492;8.474;2022-11-15T08:41:30;100003.34;;;12.37;76.60
6144;BME280;3103;49.492;8.474;2022-11-15T08:44:15;99995.22;;;12.27;77.06
6144;BME280;3103;49.492;8.474;2022-11-15T08:47:01;99999.53;;;12.28;77.30
6144;BME280;3103;49.492;8.474;2022-11-15T08:49:46;99981.69;;;12.16;77.99
6144;BME280;3103;49.492;8.474;2022-11-15T08:52:31;99994.34;;;12.21;77.67
6144;BME280;3103;49.492;8.474;2022-11-15T08:55:17;99981.66;;;12.11;78.89
6144;BME280;3103;49.492;8.474;2022-11-15T08:58:02;99999.22;;;12.24;78.15
6144;BME280;3103;49.492;8.474;2022-11-15T09:00:48;99999.06;;;12.41;77.03
6144;BME280;3103;49.492;8.474;2022-11-15T09:03:33;99998.19;;;12.30;78.33
6144;BME280;3103;49.492;8.474;2022-11-15T09:06:19;99995.72;;;12.24;78.38
6144;BME280;3103;49.492;8.474;2022-11-15T09:09:04;99992.78;;;12.25;78.50
6144;BME280;3103;49.492;8.474;2022-11-15T09:11:49;99986.00;;;12.23;78.79
6144;BME280;3103;49.492;8.474;2022-11-15T09:14:35;99986.53;;;12.19;79.48
6144;BME280;3103;49.492;8.474;2022-11-15T09:17:20;99988.50;;;12.34;79.12
6144;BME280;3103;49.492;8.474;2022-11-15T09:20:13;99985.25;;;12.27;79.04
6144;BME280;3103;49.492;8.474;2022-11-15T09:23:03;99989.03;;;12.26;79.42
6144;BME280;3103;49.492;8.474;2022-11-15T09:25:48;99995.09;;;12.64;77.97
6144;BME280;3103;49.492;8.474;2022-11-15T09:28:33;99994.34;;;12.68;76.96
6144;BME280;3103;49.492;8.474;2022-11-15T09:31:20;99992.72;;;12.67;77.04
6144;BME280;3103;49.492;8.474;2022-11-15T09:34:06;99989.72;;;12.59;78.31
6144;BME280;3103;49.492;8.474;2022-11-15T09:36:54;99996.66;;;12.49;78.40
6144;BME280;3103;49.492;8.474;2022-11-15T09:39:42;99994.56;;;12.62;78.38
6144;BME280;3103;49.492;8.474;2022-11-15T09:48:49;99994.25;;;13.26;75.31
6144;BME280;3103;49.492;8.474;2022-11-15T09:51:38;99990.19;;;13.33;74.94
6144;BME280;3103;49.492;8.474;2022-11-15T09:54:26;99978.34;;;13.24;75.61
6144;BME280;3103;49.492;8.474;2022-11-15T10:03:28;99977.19;;;13.15;77.33
6144;BME280;3103;49.492;8.474;2022-11-15T10:06:01;99975.03;;;13.12;77.57
6144;BME280;3103;49.492;8.474;2022-11-15T10:11:20;99968.00;;;13.06;78.18
6144;BME280;3103;49.492;8.474;2022-11-15T10:14:10;99963.41;;;12.96;78.13
6144;BME280;3103;49.492;8.474;2022-11-15T10:22:21;99960.78;;;13.22;76.41
6144;BME280;3103;49.492;8.474;2022-11-15T10:24:50;99955.94;;;13.29;75.85
6144;BME280;3103;49.492;8.474;2022-11-15T10:27:19;99963.22;;;13.18;76.23
6144;BME280;3103;49.492;8.474;2022-11-15T10:29:48;99958.09;;;13.27;74.89
6144;BME280;3103;49.492;8.474;2022-11-15T10:32:17;99957.56;;;13.30;74.99
6144;BME280;3103;49.492;8.474;2022-11-15T10:34:44;99957.00;;;13.33;74.80
6144;BME280;3103;49.492;8.474;2022-11-15T10:37:11;99951.38;;;13.40;74.59
6144;BME280;3103;49.492;8.474;2022-11-15T10:39:38;99950.00;;;13.32;75.02
6144;BME280;3103;49.492;8.474;2022-11-15T10:42:35;99940.84;;;13.43;74.61
6144;BME280;3103;49.492;8.474;2022-11-15T10:45:01;99938.94;;;13.49;74.04
6144;BME280;3103;49.492;8.474;2022-11-15T10:47:31;99936.53;;;13.27;75.01
6144;BME280;3103;49.492;8.474;2022-11-15T10:50:31;99933.28;;;13.35;74.76
6144;BME280;3103;49.492;8.474;2022-11-15T10:53:00;99926.53;;;13.32;74.98
6144;BME280;3103;49.492;8.474;2022-11-15T10:55:30;99928.94;;;13.49;74.25
6144;BME280;3103;49.492;8.474;2022-11-15T10:58:05;99918.16;;;13.29;74.66
6144;BME280;3103;49.492;8.474;2022-11-15T11:00:36;99911.41;;;13.31;75.30
6144;BME280;3103;49.492;8.474;2022-11-15T11:05:47;99906.03;;;13.42;75.37
6144;BME280;3103;49.492;8.474;2022-11-15T11:10:52;99897.13;;;13.46;75.59
6144;BME280;3103;49.492;8.474;2022-11-15T11:16:23;99883.63;;;13.56;76.07
6144;BME280;3103;49.492;8.474;2022-11-15T11:19:08;99874.41;;;13.62;76.36
6144;BME280;3103;49.492;8.474;2022-11-15T11:22:06;99869.56;;;13.49;76.46
6144;BME280;3103;49.492;8.474;2022-11-15T11:31:13;99863.09;;;13.60;76.49
6144;BME280;3103;49.492;8.474;2022-11-15T11:33:52;99858.75;;;13.64;76.41
6144;BME280;3103;49.492;8.474;2022-11-15T11:39:27;99851.34;;;14.06;74.25
6144;BME280;3103;49.492;8.474;2022-11-15T11:47:24;99855.16;;;14.00;74.09
6144;BME280;3103;49.492;8.474;2022-11-15T11:49:53;99847.59;;;13.91;74.90
6144;BME280;3103;49.492;8.474;2022-11-15T11:52:38;99837.09;;;13.90;74.94
6144;BME280;3103;49.492;8.474;2022-11-15T11:55:21;99828.97;;;13.90;74.77
6144;BME280;3103;49.492;8.474;2022-11-15T12:00:31;99823.00;;;14.08;74.07
6144;BME280;3103;49.492;8.474;2022-11-15T12:03:07;99818.63;;;14.12;73.96
6144;BME280;3103;49.492;8.474;2022-11-15T12:05:56;99805.22;;;13.92;74.43
6144;BME280;3103;49.492;8.474;2022-11-15T12:08:46;99801.97;;;13.95;74.42
6144;BME280;3103;49.492;8.474;2022-11-15T12:11:43;99793.31;;;13.93;74.55
6144;BME280;3103;49.492;8.474;2022-11-15T12:17:23;99784.97;;;13.94;74.24
6144;BME280;3103;49.492;8.474;2022-11-15T12:19:56;99782.84;;;13.86;74.55
6144;BME280;3103;49.492;8.474;2022-11-15T12:23:13;99777.53;;;14.20;72.87
6144;BME280;3103;49.492;8.474;2022-11-15T12:28:15;99769.44;;;14.15;73.03
6144;BME280;3103;49.492;8.474;2022-11-15T12:31:03;99774.19;;;13.84;74.76
6144;BME280;3103;49.492;8.474;2022-11-15T12:33:37;99764.47;;;13.88;74.88
6144;BME280;3103;49.492;8.474;2022-11-15T12:39:07;99761.69;;;14.04;74.05
6144;BME280;3103;49.492;8.474;2022-11-15T12:41:40;99758.25;;;13.88;75.38
6144;BME280;3103;49.492;8.474;2022-11-15T12:44:15;99762.25;;;14.01;74.80
6144;BME280;3103;49.492;8.474;2022-11-15T12:47:21;99757.66;;;14.01;74.27
6144;BME280;3103;49.492;8.474;2022-11-15T12:49:49;99761.16;;;14.02;74.46
6144;BME280;3103;49.492;8.474;2022-11-15T12:52:16;99755.25;;;13.94;74.91
6144;BME280;3103;49.492;8.474;2022-11-15T12:54:52;99758.78;;;13.95;74.43
6144;BME280;3103;49.492;8.474;2022-11-15T13:02:23;99758.88;;;13.70;75.88
6144;BME280;3103;49.492;8.474;2022-11-15T13:04:51;99747.41;;;13.98;75.11
6144;BME280;3103;49.492;8.474;2022-11-15T13:15:33;99735.00;;;13.97;75.10
6144;BME280;3103;49.492;8.474;2022-11-15T13:18:28;99734.53;;;13.80;76.01
6144;BME280;3103;49.492;8.474;2022-11-15T13:21:00;99731.19;;;13.98;75.19
6144;BME280;3103;49.492;8.474;2022-11-15T13:23:28;99723.09;;;13.93;76.27
6144;BME280;3103;49.492;8.474;2022-11-15T13:26:14;99718.34;;;13.75;75.74
6144;BME280;3103;49.492;8.474;2022-11-15T13:28:46;99713.56;;;14.11;74.38
6144;BME280;3103;49.492;8.474;2022-11-15T13:31:36;99712.34;;;13.88;74.71
6144;BME280;3103;49.492;8.474;2022-11-15T13:34:28;99700.25;;;14.19;72.98
6144;BME280;3103;49.492;8.474;2022-11-15T13:39:49;99692.19;;;14.14;73.34
6144;BME280;3103;49.492;8.474;2022-11-15T13:42:17;99685.31;;;13.93;74.39
6144;BME280;3103;49.492;8.474;2022-11-15T13:47:25;99687.03;;;13.74;75.37
6144;BME280;3103;49.492;8.474;2022-11-15T13:49:59;99677.91;;;13.64;76.00
6144;BME280;3103;49.492;8.474;2022-11-15T13:52:32;99681.03;;;13.87;75.02
6144;BME280;3103;49.492;8.474;2022-11-15T13:55:31;99680.59;;;14.14;73.65
6144;BME280;3103;49.492;8.474;2022-11-15T13:58:03;99666.72;;;14.25;72.95
6144;BME280;3103;49.492;8.474;2022-11-15T14:00:42;99665.25;;;14.04;73.62
6144;BME280;3103;49.492;8.474;2022-11-15T14:03:21;99661.38;;;13.81;74.77
6144;BME280;3103;49.492;8.474;2022-11-15T14:06:13;99647.16;;;13.65;75.63
6144;BME280;3103;49.492;8.474;2022-11-15T14:11:30;99637.59;;;13.78;74.91
6144;BME280;3103;49.492;8.474;2022-11-15T14:16:40;99631.97;;;13.75;74.93
6144;BME280;3103;49.492;8.474;2022-11-15T14:19:33;99624.38;;;13.77;74.80
6144;BME280;3103;49.492;8.474;2022-11-15T14:22:22;99624.78;;;13.99;73.61
6144;BME280;3103;49.492;8.474;2022-11-15T14:27:41;99606.38;;;13.67;75.05
6144;BME280;3103;49.492;8.474;2022-11-15T14:30:16;99606.66;;;13.65;75.26
6144;BME280;3103;49.492;8.474;2022-11-15T14:32:48;99599.91;;;13.63;75.14
6144;BME280;3103;49.492;8.474;2022-11-15T14:35:20;99581.38;;;13.51;75.29
6144;BME280;3103;49.492;8.474;2022-11-15T14:37:47;99591.84;;;13.58;75.01
6144;BME280;3103;49.492;8.474;2022-11-15T14:40:20;99584.28;;;13.60;74.41
6144;BME280;3103;49.492;8.474;2022-11-15T14:42:48;99584.22;;;13.70;74.39
6144;BME280;3103;49.492;8.474;2022-11-15T14:45:18;99588.25;;;13.73;74.11
6144;BME280;3103;49.492;8.474;2022-11-15T14:47:47;99579.56;;;13.81;73.85
6144;BME280;3103;49.492;8.474;2022-11-15T14:50:16;99569.03;;;13.79;73.69
6144;BME280;3103;49.492;8.474;2022-11-15T14:52:44;99567.97;;;13.80;73.97
6144;BME280;3103;49.492;8.474;2022-11-15T14:55:27;99562.16;;;13.97;73.52
6144;BME280;3103;49.492;8.474;2022-11-15T14:57:55;99553.84;;;13.88;74.28
6144;BME280;3103;49.492;8.474;2022-11-15T15:00:22;99547.47;;;13.74;74.69
6144;BME280;3103;49.492;8.474;2022-11-15T15:02:52;99542.94;;;13.64;75.54
6144;BME280;3103;49.492;8.474;2022-11-15T15:05:21;99545.94;;;13.63;75.54
6144;BME280;3103;49.492;8.474;2022-11-15T15:07:48;99545.91;;;13.68;75.20
6144;BME280;3103;49.492;8.474;2022-11-15T15:10:16;99536.50;;;13.60;75.97
6144;BME280;3103;49.492;8.474;2022-11-15T15:13:04;99527.03;;;13.63;75.98
6144;BME280;3103;49.492;8.474;2022-11-15T15:15:33;99539.72;;;13.62;76.30
6144;BME280;3103;49.492;8.474;2022-11-15T15:18:01;99528.56;;;13.40;76.43
6144;BME280;3103;49.492;8.474;2022-11-15T15:20:29;99535.19;;;13.58;76.18
6144;BME280;3103;49.492;8.474;2022-11-15T15:22:56;99527.41;;;13.51;76.76
6144;BME280;3103;49.492;8.474;2022-11-15T15:25:30;99527.47;;;13.41;76.72
6144;BME280;3103;49.492;8.474;2022-11-15T15:27:58;99527.25;;;13.72;75.26
6144;BME280;3103;49.492;8.474;2022-11-15T15:30:27;99513.03;;;13.61;77.15
6144;BME280;3103;49.492;8.474;2022-11-15T15:32:54;99510.94;;;13.48;76.95
6144;BME280;3103;49.492;8.474;2022-11-15T15:35:22;99509.69;;;13.40;77.10
6144;BME280;3103;49.492;8.474;2022-11-15T15:37:50;99512.09;;;13.42;77.17
6144;BME280;3103;49.492;8.474;2022-11-15T15:40:20;99504.28;;;13.40;76.88
6144;BME280;3103;49.492;8.474;2022-11-15T15:42:48;99509.91;;;13.44;76.60
6144;BME280;3103;49.492;8.474;2022-11-15T15:45:16;99503.16;;;13.46;76.75
6144;BME280;3103;49.492;8.474;2022-11-15T15:47:44;99501.31;;;13.42;77.31
6144;BME280;3103;49.492;8.474;2022-11-15T15:50:20;99499.63;;;13.46;77.08
6144;BME280;3103;49.492;8.474;2022-11-15T15:52:49;99495.56;;;13.48;76.96
6144;BME280;3103;49.492;8.474;2022-11-15T15:55:16;99498.88;;;13.40;77.17
6144;BME280;3103;49.492;8.474;2022-11-15T15:57:43;99496.06;;;13.55;76.69
6144;BME280;3103;49.492;8.474;2022-11-15T16:00:10;99490.69;;;13.50;77.00
6144;BME280;3103;49.492;8.474;2022-11-15T16:02:40;99485.34;;;13.45;76.80
6144;BME280;3103;49.492;8.474;2022-11-15T16:05:09;99490.03;;;13.69;75.82
6144;BME280;3103;49.492;8.474;2022-11-15T16:07:36;99483.41;;;13.85;75.23
6144;BME280;3103;49.492;8.474;2022-11-15T16:10:27;99482.28;;;13.57;76.62
6144;BME280;3103;49.492;8.474;2022-11-15T16:12:56;99480.47;;;13.47;77.24
6144;BME280;3103;49.492;8.474;2022-11-15T16:15:25;99478.84;;;13.46;77.46
6144;BME280;3103;49.492;8.474;2022-11-15T16:17:54;99477.78;;;13.47;76.98
6144;BME280;3103;49.492;8.474;2022-11-15T16:20:41;99481.88;;;13.74;75.66
6144;BME280;3103;49.492;8.474;2022-11-15T16:23:16;99469.19;;;13.74;75.14
6144;BME280;3103;49.492;8.474;2022-11-15T16:25:47;99465.25;;;13.90;74.09
6144;BME280;3103;49.492;8.474;2022-11-15T16:28:21;99456.06;;;13.62;75.21